Time;durP1;ratioP1;P1;durP2;ratioP2;P2;SDS_P1;SDS_P2;PMS_P1;PMS_P2;Temp;Humidity;BMP_temperature;BMP_pressure;BME280_temperature;BME280_humidity;BME280_pressure;Samples;Min_cycle;Max_cycle;Signal;HPM_P1;HPM_P2
2023/05/10 00:01:13;;;;;;;13.25;7.65;;;14.80;40.80;;;;;;6166887;23;20043;-90
2023/05/10 00:03:40;;;;;;;12.70;8.00;;;14.70;40.60;;;;;;6164900;23;20024;-91
2023/05/10 00:06:06;;;;;;;13.85;7.40;;;14.70;40.40;;;;;;6191818;23;20100;-83
2023/05/10 00:08:32;;;;;;;10.00;7.25;;;14.70;40.40;;;;;;6195904;23;20103;-90
2023/05/10 00:10:58;;;;;;;13.10;7.50;;;14.80;40.40;;;;;;6160077;23;20020;-92
2023/05/10 00:13:23;;;;;;;12.10;7.35;;;14.70;40.30;;;;;;6185574;23;20048;-90
2023/05/10 00:15:50;;;;;;;12.95;7.13;;;14.70;40.30;;;;;;6185036;23;20028;-88
2023/05/10 00:18:16;;;;;;;14.30;7.38;;;14.70;40.60;;;;;;6184612;23;20027;-88
2023/05/10 00:20:42;;;;;;;13.65;7.78;;;14.70;40.90;;;;;;6185759;23;20074;-81
2023/05/10 00:23:08;;;;;;;16.42;7.32;;;14.70;41.10;;;;;;6183190;23;20009;-86
2023/05/10 00:25:34;;;;;;;11.48;7.32;;;14.60;41.10;;;;;;6157509;23;20080;-87
2023/05/10 00:28:01;;;;;;;19.75;8.13;;;14.60;41.10;;;;;;6157235;23;20013;-86
2023/05/10 00:30:27;;;;;;;10.80;6.95;;;14.60;41.00;;;;;;6182317;23;20022;-91
2023/05/10 00:32:54;;;;;;;14.32;7.80;;;14.60;40.90;;;;;;6183220;23;20027;-89
2023/05/10 00:35:21;;;;;;;13.48;7.80;;;14.60;41.00;;;;;;6156521;23;20048;-83
2023/05/10 00:37:47;;;;;;;11.27;7.10;;;14.60;41.00;;;;;;6157072;23;20092;-87
2023/05/10 00:40:14;;;;;;;12.18;7.43;;;14.60;41.00;;;;;;6156680;23;20025;-90
2023/05/10 00:42:43;;;;;;;13.85;7.43;;;14.60;40.90;;;;;;6155120;23;20051;-82
2023/05/10 00:45:09;;;;;;;11.63;7.22;;;14.60;40.80;;;;;;6180480;23;20021;-88
2023/05/10 00:47:35;;;;;;;12.52;7.63;;;14.50;40.70;;;;;;6179457;23;20020;-88
2023/05/10 00:50:02;;;;;;;13.70;7.53;;;14.60;40.70;;;;;;6155835;23;20428;-89
2023/05/10 00:52:29;;;;;;;11.32;6.82;;;14.50;40.60;;;;;;6180353;23;20021;-81
2023/05/10 00:54:56;;;;;;;11.23;7.28;;;14.50;40.60;;;;;;6180389;23;20017;-85
2023/05/10 00:57:22;;;;;;;11.93;7.45;;;14.60;40.50;;;;;;6179770;23;20503;-83
2023/05/10 00:59:49;;;;;;;12.90;6.63;;;14.60;40.70;;;;;;6129700;23;20013;-85
2023/05/10 01:02:15;;;;;;;12.80;7.38;;;14.60;41.00;;;;;;6154747;23;20023;-82
2023/05/10 01:04:41;;;;;;;9.98;7.15;;;14.60;41.10;;;;;;6181540;23;20013;-86
2023/05/10 01:07:07;;;;;;;12.38;7.10;;;14.60;41.00;;;;;;6153929;23;20028;-85
2023/05/10 01:09:33;;;;;;;13.07;7.75;;;14.50;40.90;;;;;;6179339;23;20028;-86
2023/05/10 01:12:01;;;;;;;10.00;7.10;;;14.50;40.90;;;;;;6154084;23;20396;-87
2023/05/10 01:14:29;;;;;;;13.65;6.85;;;14.50;41.10;;;;;;6154172;23;20013;-83
2023/05/10 01:16:55;;;;;;;11.68;7.20;;;14.50;41.20;;;;;;6129388;23;20021;-82
2023/05/10 01:19:27;;;;;;;13.18;7.75;;;14.50;41.50;;;;;;6153815;23;20025;-82
2023/05/10 01:21:53;;;;;;;14.10;7.32;;;14.50;41.80;;;;;;6178727;23;20456;-84
2023/05/10 01:24:32;;;;;;;12.40;7.45;;;14.50;42.20;;;;;;6154036;23;20013;-86
2023/05/10 01:27:17;;;;;;;11.43;7.03;;;14.50;42.30;;;;;;6129573;23;20100;-85
2023/05/10 01:30:02;;;;;;;15.27;6.97;;;14.50;42.00;;;;;;6180235;23;20013;-84
2023/05/10 01:32:36;;;;;;;12.23;6.55;;;14.50;41.80;;;;;;6179626;23;20025;-81
2023/05/10 01:35:07;;;;;;;12.55;6.88;;;14.40;42.10;;;;;;6181119;23;20063;-80
2023/05/10 01:37:43;;;;;;;10.00;6.43;;;14.40;41.30;;;;;;6128707;23;20021;-85
2023/05/10 01:40:59;;;;;;;12.98;6.82;;;14.40;41.60;;;;;;6129362;23;20028;-83
2023/05/10 01:43:36;;;;;;;13.57;6.63;;;14.40;42.10;;;;;;6002341;23;20019;-85
2023/05/10 01:46:10;;;;;;;10.32;6.28;;;14.40;42.30;;;;;;6002376;23;20027;-78
2023/05/10 01:48:51;;;;;;;10.60;6.53;;;14.40;42.20;;;;;;6002369;23;20028;-82
2023/05/10 01:51:23;;;;;;;13.18;6.20;;;14.40;42.20;;;;;;6001958;23;20031;-83
2023/05/10 01:53:51;;;;;;;9.30;5.93;;;14.40;42.20;;;;;;5979395;23;20479;-86
2023/05/10 01:56:23;;;;;;;11.85;6.10;;;14.40;42.20;;;;;;6003164;23;20008;-87
2023/05/10 01:58:51;;;;;;;10.95;6.63;;;14.30;42.00;;;;;;5980118;23;20008;-86
2023/05/10 02:01:21;;;;;;;15.98;5.85;;;14.30;41.90;;;;;;5979380;23;20079;-83
2023/05/10 02:03:48;;;;;;;10.18;5.50;;;14.40;41.80;;;;;;6002138;23;20387;-85
2023/05/10 02:06:16;;;;;;;13.68;6.65;;;14.40;41.70;;;;;;6003189;23;20330;-88
2023/05/10 02:08:45;;;;;;;9.57;6.15;;;14.40;41.80;;;;;;5982448;23;20139;-88
2023/05/10 02:11:13;;;;;;;10.80;5.53;;;14.30;41.80;;;;;;6006154;23;20011;-88
2023/05/10 02:13:41;;;;;;;8.73;5.20;;;14.30;41.80;;;;;;5982520;23;20018;-84
2023/05/10 02:16:07;;;;;;;7.45;5.38;;;14.30;41.70;;;;;;6004263;23;20020;-87
2023/05/10 02:18:36;;;;;;;10.77;6.15;;;14.40;41.60;;;;;;6017581;23;20473;-87
2023/05/10 02:21:03;;;;;;;9.30;5.18;;;14.30;41.50;;;;;;6136603;23;20013;-86
2023/05/10 02:23:30;;;;;;;10.77;5.95;;;14.40;41.40;;;;;;6154664;23;20048;-87
2023/05/10 02:25:57;;;;;;;12.40;5.72;;;14.30;41.90;;;;;;6187776;23;20013;-87
2023/05/10 02:28:25;;;;;;;8.85;4.72;;;14.30;41.20;;;;;;6159663;23;20104;-90
2023/05/10 02:30:52;;;;;;;7.82;4.93;;;14.40;41.20;;;;;;6187129;23;20055;-92
2023/05/10 02:33:21;;;;;;;8.45;5.13;;;14.30;41.00;;;;;;6183025;23;20027;-82
2023/05/10 02:35:47;;;;;;;5.82;4.32;;;14.30;40.90;;;;;;6179619;23;20036;-82
2023/05/10 02:38:15;;;;;;;8.43;4.72;;;14.30;40.90;;;;;;6152658;23;20016;-88
2023/05/10 02:40:43;;;;;;;8.98;4.82;;;14.30;41.00;;;;;;6155200;23;20099;-87
2023/05/10 02:43:14;;;;;;;11.52;5.30;;;14.30;41.00;;;;;;6179905;23;20021;-86
2023/05/10 02:45:41;;;;;;;7.18;4.88;;;14.30;41.00;;;;;;6179017;23;20017;-86
2023/05/10 02:48:09;;;;;;;6.45;4.60;;;14.30;41.10;;;;;;6129691;23;20041;-84
2023/05/10 02:50:37;;;;;;;10.80;4.45;;;14.30;41.10;;;;;;6180201;23;20054;-87
2023/05/10 02:53:11;;;;;;;8.32;4.30;;;14.30;41.10;;;;;;6129006;23;20396;-79
2023/05/10 02:55:41;;;;;;;10.15;4.32;;;14.30;41.20;;;;;;6154081;23;20067;-88
2023/05/10 02:58:07;;;;;;;9.85;4.93;;;14.30;41.20;;;;;;6153256;23;20021;-83
2023/05/10 03:00:33;;;;;;;8.90;4.38;;;14.30;41.30;;;;;;6179665;23;20028;-86
2023/05/10 03:03:00;;;;;;;9.10;5.13;;;14.30;41.30;;;;;;6153379;23;20013;-87
2023/05/10 03:05:27;;;;;;;6.53;4.38;;;14.30;41.00;;;;;;6129307;23;20020;-89
2023/05/10 03:07:54;;;;;;;6.22;3.97;;;14.30;41.60;;;;;;6131968;23;20448;-92
2023/05/10 03:10:26;;;;;;;8.85;4.20;;;14.30;40.90;;;;;;6157631;23;20021;-92
2023/05/10 03:13:28;;;;;;;7.53;4.10;;;14.30;40.80;;;;;;6130389;23;20021;-87
2023/05/10 03:16:00;;;;;;;8.73;4.15;;;14.30;40.60;;;;;;6128477;23;20021;-85
2023/05/10 03:18:54;;;;;;;5.72;4.18;;;14.30;40.50;;;;;;6152737;23;20456;-83
2023/05/10 03:21:25;;;;;;;10.10;4.63;;;14.30;40.60;;;;;;6153205;23;20052;-84
2023/05/10 03:24:05;;;;;;;9.60;4.57;;;14.30;40.80;;;;;;6153132;23;20013;-85
2023/05/10 03:26:32;;;;;;;6.35;4.07;;;14.40;40.90;;;;;;6154122;23;20017;-83
2023/05/10 03:29:14;;;;;;;7.38;3.92;;;14.40;41.10;;;;;;6152895;23;20456;-80
2023/05/10 03:31:40;;;;;;;10.98;4.00;;;14.40;41.10;;;;;;6128776;23;20451;-79
2023/05/10 03:34:06;;;;;;;7.22;3.70;;;14.40;40.90;;;;;;6178969;23;20017;-86
2023/05/10 03:36:33;;;;;;;8.05;3.75;;;14.30;40.70;;;;;;6180847;23;20021;-91
2023/05/10 03:38:59;;;;;;;7.40;3.42;;;14.40;40.80;;;;;;6183517;23;20095;-81
2023/05/10 03:41:26;;;;;;;8.77;3.58;;;14.40;40.60;;;;;;6156714;23;20016;-85
2023/05/10 03:43:53;;;;;;;8.27;3.97;;;14.40;40.60;;;;;;6155673;23;20016;-88
2023/05/10 03:46:19;;;;;;;8.55;3.67;;;14.40;40.60;;;;;;6153354;23;20027;-82
2023/05/10 03:48:45;;;;;;;8.45;4.13;;;14.40;40.60;;;;;;6152599;23;20017;-84
2023/05/10 03:51:11;;;;;;;10.23;4.35;;;14.40;40.70;;;;;;6151829;23;20589;-84
2023/05/10 03:53:39;;;;;;;8.95;4.13;;;14.40;41.00;;;;;;6151365;23;20681;-85
2023/05/10 03:56:05;;;;;;;6.45;3.70;;;14.40;41.00;;;;;;6154595;23;20017;-87
2023/05/10 03:58:30;;;;;;;8.10;3.97;;;14.50;41.20;;;;;;6181626;23;20036;-81
2023/05/10 04:00:58;;;;;;;10.07;4.20;;;14.50;41.30;;;;;;6152101;23;20017;-81
2023/05/10 04:03:25;;;;;;;7.55;3.85;;;14.50;41.30;;;;;;6178260;23;20024;-79
2023/05/10 04:06:01;;;;;;;10.13;3.75;;;14.50;41.30;;;;;;6127040;23;20390;-80
2023/05/10 04:08:28;;;;;;;9.30;4.18;;;14.50;41.30;;;;;;6127135;23;20041;-82
2023/05/10 04:10:54;;;;;;;11.35;4.10;;;14.50;41.50;;;;;;6153149;23;20097;-81
2023/05/10 04:13:20;;;;;;;9.73;5.00;;;14.50;41.70;;;;;;6178510;23;20091;-81
2023/05/10 04:15:46;;;;;;;12.32;4.35;;;14.60;41.70;;;;;;6127768;23;20120;-77
2023/05/10 04:18:12;;;;;;;10.57;4.50;;;14.60;41.90;;;;;;6178606;23;20485;-84
2023/05/10 04:20:38;;;;;;;11.70;4.28;;;14.60;41.80;;;;;;6177134;23;20013;-77
2023/05/10 04:23:04;;;;;;;7.57;3.95;;;14.60;41.80;;;;;;6126130;23;20040;-83
2023/05/10 04:25:30;;;;;;;9.38;3.88;;;14.70;41.80;;;;;;6151371;23;20540;-82
2023/05/10 04:27:56;;;;;;;9.65;4.63;;;14.70;41.70;;;;;;6150438;23;20025;-78
2023/05/10 04:30:22;;;;;;;9.15;3.67;;;14.70;41.60;;;;;;6176950;23;20027;-82
2023/05/10 04:32:48;;;;;;;6.78;3.47;;;14.70;41.60;;;;;;6151921;23;20435;-78
2023/05/10 04:35:14;;;;;;;11.48;3.70;;;14.70;41.50;;;;;;6179028;23;20048;-80
2023/05/10 04:37:40;;;;;;;6.03;3.40;;;14.70;41.50;;;;;;6152485;23;20044;-80
2023/05/10 04:40:07;;;;;;;7.85;3.30;;;14.80;41.40;;;;;;6180729;23;20017;-79
2023/05/10 04:42:33;;;;;;;5.43;3.20;;;14.80;41.30;;;;;;6154939;23;20350;-79
2023/05/10 04:44:59;;;;;;;5.90;3.60;;;14.80;41.30;;;;;;6154154;23;20025;-82
2023/05/10 04:47:24;;;;;;;5.30;3.00;;;14.80;41.20;;;;;;6180579;23;20021;-81
2023/05/10 04:49:50;;;;;;;5.90;2.92;;;14.90;41.00;;;;;;6180700;23;20013;-80
2023/05/10 04:52:17;;;;;;;5.82;2.85;;;14.90;40.80;;;;;;6153929;23;20477;-80
2023/05/10 04:54:43;;;;;;;5.50;3.17;;;15.00;40.70;;;;;;6153485;23;20131;-82
2023/05/10 04:57:09;;;;;;;3.97;3.40;;;15.10;40.60;;;;;;6179629;23;20021;-79
2023/05/10 04:59:37;;;;;;;5.15;3.00;;;15.10;40.50;;;;;;6153571;23;20076;-84
2023/05/10 05:02:03;;;;;;;4.53;3.25;;;15.10;40.40;;;;;;6180454;23;20131;-78
2023/05/10 05:04:30;;;;;;;6.82;3.17;;;15.20;40.30;;;;;;6179095;23;20422;-78
2023/05/10 05:06:56;;;;;;;4.32;2.67;;;15.20;40.10;;;;;;6179199;23;20032;-80
2023/05/10 05:09:22;;;;;;;6.22;3.13;;;15.20;40.10;;;;;;6179829;23;20364;-81
2023/05/10 05:11:48;;;;;;;5.82;2.25;;;15.30;39.90;;;;;;6178847;23;20024;-77
2023/05/10 05:14:14;;;;;;;6.13;2.72;;;15.40;40.00;;;;;;6178592;23;20013;-84
2023/05/10 05:16:40;;;;;;;6.63;3.05;;;15.40;41.70;;;;;;6179924;23;20402;-85
2023/05/10 05:19:06;;;;;;;6.15;3.45;;;15.50;43.10;;;;;;6180649;23;20044;-86
2023/05/10 05:21:32;;;;;;;30.35;4.65;;;15.60;43.60;;;;;;6181897;23;20044;-90
2023/05/10 05:23:58;;;;;;;12.18;3.22;;;15.70;43.40;;;;;;6180598;23;20089;-88
2023/05/10 05:26:24;;;;;;;9.82;3.33;;;15.80;43.20;;;;;;6180490;23;20088;-86
2023/05/10 05:28:53;;;;;;;4.57;2.90;;;15.90;43.40;;;;;;6180299;23;20020;-88
2023/05/10 05:31:19;;;;;;;11.00;3.30;;;16.00;42.70;;;;;;6179860;23;20029;-79
2023/05/10 05:33:45;;;;;;;5.38;2.67;;;16.00;42.50;;;;;;6180075;23;20034;-82
2023/05/10 05:36:11;;;;;;;6.07;3.03;;;16.10;42.40;;;;;;6153777;23;20015;-84
2023/05/10 05:38:37;;;;;;;6.50;2.67;;;16.10;42.00;;;;;;6179526;23;20017;-83
2023/05/10 05:41:03;;;;;;;5.18;2.55;;;16.10;42.00;;;;;;6180031;23;20016;-78
2023/05/10 05:43:29;;;;;;;7.05;2.70;;;16.20;41.70;;;;;;6180294;23;20013;-82
2023/05/10 05:45:57;;;;;;;4.50;2.72;;;16.20;41.50;;;;;;6180008;23;20049;-87
2023/05/10 05:48:23;;;;;;;3.20;2.35;;;16.30;41.30;;;;;;6181023;23;20021;-87
2023/05/10 05:50:49;;;;;;;7.22;2.38;;;16.30;41.00;;;;;;6183369;23;20029;-89
2023/05/10 05:53:15;;;;;;;3.42;2.10;;;16.30;40.50;;;;;;6210955;23;20055;-85
2023/05/10 05:55:52;;;;;;;4.97;2.28;;;16.40;40.30;;;;;;6211414;23;20009;-87
2023/05/10 05:58:18;;;;;;;4.18;2.67;;;16.40;40.00;;;;;;6211135;23;20106;-85
2023/05/10 06:00:44;;;;;;;13.70;3.50;;;16.40;39.70;;;;;;6183917;23;20095;-86
2023/05/10 06:03:10;;;;;;;8.85;3.28;;;16.50;39.70;;;;;;6183575;23;20008;-86
2023/05/10 06:05:36;;;;;;;9.23;2.53;;;16.50;39.50;;;;;;6210501;23;20036;-86
2023/05/10 06:08:02;;;;;;;7.88;2.50;;;16.60;39.30;;;;;;6211152;23;20036;-88
2023/05/10 06:10:28;;;;;;;10.52;2.83;;;16.60;39.30;;;;;;6211268;23;20368;-86
2023/05/10 06:12:54;;;;;;;7.97;2.35;;;16.60;38.90;;;;;;6184918;23;20044;-86
2023/05/10 06:15:20;;;;;;;3.65;2.20;;;16.70;38.50;;;;;;6210144;23;20476;-83
2023/05/10 06:17:48;;;;;;;6.78;2.03;;;16.80;38.70;;;;;;6184039;23;20017;-88
2023/05/10 06:20:15;;;;;;;5.57;2.15;;;16.80;38.70;;;;;;6210651;23;20009;-87
2023/05/10 06:22:41;;;;;;;4.57;2.17;;;16.90;38.70;;;;;;6210903;23;20020;-88
2023/05/10 06:25:08;;;;;;;3.33;2.20;;;16.90;38.20;;;;;;6210047;23;20020;-84
2023/05/10 06:27:34;;;;;;;7.70;2.03;;;17.00;38.30;;;;;;6210684;23;20123;-87
2023/05/10 06:30:00;;;;;;;8.43;2.15;;;17.10;38.30;;;;;;6183152;23;20024;-80
2023/05/10 06:32:26;;;;;;;11.02;3.05;;;17.20;38.20;;;;;;6208423;23;20074;-86
2023/05/10 06:34:52;;;;;;;6.70;2.50;;;17.30;37.90;;;;;;6210782;23;20019;-89
2023/05/10 06:37:17;;;;;;;5.15;2.28;;;17.30;37.80;;;;;;6210989;23;20028;-90
2023/05/10 06:39:43;;;;;;;5.07;2.33;;;17.40;37.80;;;;;;6211987;23;20268;-84
2023/05/10 06:42:09;;;;;;;6.97;1.95;;;17.50;37.40;;;;;;6185416;23;20012;-87
2023/05/10 06:44:35;;;;;;;5.57;1.85;;;17.50;37.10;;;;;;6184967;23;20023;-89
2023/05/10 06:47:01;;;;;;;4.85;1.48;;;17.50;36.70;;;;;;6211258;23;20087;-88
2023/05/10 06:49:27;;;;;;;4.53;1.90;;;17.50;36.40;;;;;;6199258;23;20111;-88
2023/05/10 06:51:55;;;;;;;5.57;1.70;;;17.60;36.40;;;;;;6180795;23;20075;-90
2023/05/10 06:54:21;;;;;;;7.63;2.03;;;17.60;36.60;;;;;;6180773;23;20024;-88
2023/05/10 06:56:47;;;;;;;10.63;2.15;;;17.70;36.40;;;;;;6155378;23;20532;-89
2023/05/10 06:59:13;;;;;;;6.88;1.75;;;17.70;36.10;;;;;;6155630;23;20082;-89
2023/05/10 07:01:39;;;;;;;10.20;1.75;;;17.80;36.10;;;;;;6181964;23;20597;-84
2023/05/10 07:04:07;;;;;;;8.10;2.05;;;17.80;35.90;;;;;;6155498;23;20021;-90
2023/05/10 07:06:33;;;;;;;3.80;2.17;;;17.90;36.00;;;;;;6155950;23;20368;-89
2023/05/10 07:09:00;;;;;;;9.02;1.75;;;17.90;36.00;;;;;;6155300;23;20024;-85
2023/05/10 07:11:26;;;;;;;5.97;1.75;;;18.00;36.00;;;;;;6181093;23;20491;-92
2023/05/10 07:13:52;;;;;;;6.35;1.88;;;18.00;36.30;;;;;;6182601;23;20001;-87
2023/05/10 07:16:19;;;;;;;2.70;1.55;;;18.00;35.90;;;;;;6157016;23;20550;-87
2023/05/10 07:18:45;;;;;;;5.22;1.58;;;18.10;36.10;;;;;;6186652;23;20021;-92
2023/05/10 07:21:11;;;;;;;2.90;1.63;;;18.20;36.30;;;;;;6187200;23;20035;-87
2023/05/10 07:23:37;;;;;;;7.28;1.70;;;18.10;36.10;;;;;;6185497;23;20392;-88
2023/05/10 07:26:03;;;;;;;6.05;1.83;;;18.20;36.30;;;;;;6159018;23;20044;-89
2023/05/10 07:28:29;;;;;;;15.13;3.40;;;18.30;36.70;;;;;;6188286;23;20021;-89
2023/05/10 07:30:55;;;;;;;7.13;2.75;;;18.30;36.30;;;;;;6198368;23;20033;-85
2023/05/10 07:33:21;;;;;;;9.45;2.42;;;18.40;36.50;;;;;;6192467;23;20033;-79
2023/05/10 07:35:47;;;;;;;55.65;6.43;;;18.50;36.60;;;;;;6205748;23;20003;-89
2023/05/10 07:38:13;;;;;;;41.63;5.13;;;18.50;36.60;;;;;;6197853;23;20013;-79
2023/05/10 07:40:39;;;;;;;25.77;3.50;;;18.60;36.50;;;;;;6177284;23;20015;-84
2023/05/10 07:43:05;;;;;;;18.42;3.80;;;18.70;36.00;;;;;;6196103;23;20017;-88
2023/05/10 07:45:32;;;;;;;16.05;2.85;;;18.70;35.90;;;;;;6196183;23;20017;-89
2023/05/10 07:47:58;;;;;;;12.68;2.45;;;18.80;36.00;;;;;;6197739;23;20020;-88
2023/05/10 07:50:24;;;;;;;7.65;1.83;;;18.90;36.00;;;;;;6198118;23;20029;-82
2023/05/10 07:52:50;;;;;;;5.68;1.95;;;19.00;35.80;;;;;;6167961;23;20009;-88
2023/05/10 07:55:18;;;;;;;6.40;1.90;;;19.00;35.70;;;;;;6184879;23;20017;-89
2023/05/10 07:57:43;;;;;;;8.43;1.77;;;19.10;35.80;;;;;;6181939;23;20027;-86
2023/05/10 08:00:13;;;;;;;4.93;2.13;;;19.20;35.40;;;;;;6182805;23;20017;-90
2023/05/10 08:02:39;;;;;;;4.43;2.10;;;19.20;35.60;;;;;;6181725;23;20020;-94
2023/05/10 08:05:05;;;;;;;4.10;2.30;;;19.30;35.20;;;;;;6179704;23;20016;-83
2023/05/10 08:07:32;;;;;;;4.53;1.60;;;19.40;35.60;;;;;;6178815;23;20051;-88
2023/05/10 08:09:58;;;;;;;3.50;1.40;;;19.40;35.30;;;;;;6152966;23;20029;-89
2023/05/10 08:12:23;;;;;;;2.83;1.50;;;19.40;35.80;;;;;;6179561;23;20017;-82
2023/05/10 08:14:49;;;;;;;3.88;1.50;;;19.50;35.70;;;;;;6179679;23;20333;-90
2023/05/10 08:17:15;;;;;;;3.28;1.80;;;19.50;35.60;;;;;;6179583;23;20013;-90
2023/05/10 08:19:41;;;;;;;2.28;1.77;;;19.50;35.50;;;;;;6154583;23;20009;-84
2023/05/10 08:22:08;;;;;;;2.67;1.38;;;19.50;35.80;;;;;;6180777;23;20025;-91
2023/05/10 08:24:38;;;;;;;6.43;1.85;;;19.50;36.10;;;;;;6153449;23;20083;-87
2023/05/10 08:27:05;;;;;;;5.25;1.70;;;19.50;34.00;;;;;;6179353;23;20091;-90
2023/05/10 08:29:31;;;;;;;4.15;1.33;;;19.40;34.00;;;;;;6154237;23;20104;-86
2023/05/10 08:31:57;;;;;;;2.28;1.30;;;19.40;34.20;;;;;;6152844;23;20013;-86
2023/05/10 08:34:23;;;;;;;2.47;1.40;;;19.50;34.00;;;;;;6152251;23;20580;-92
2023/05/10 08:36:49;;;;;;;3.47;1.50;;;19.50;34.90;;;;;;6181373;23;20025;-90
2023/05/10 08:39:15;;;;;;;6.22;1.75;;;19.50;35.50;;;;;;6154877;23;20416;-91
2023/05/10 08:41:44;;;;;;;7.80;1.80;;;19.50;35.50;;;;;;6180978;23;20041;-80
2023/05/10 08:44:11;;;;;;;6.53;2.30;;;19.50;34.20;;;;;;6154548;23;20013;-84
2023/05/10 08:46:43;;;;;;;4.35;1.67;;;19.50;34.70;;;;;;6181297;23;20088;-89
2023/05/10 08:49:16;;;;;;;2.58;1.40;;;19.50;33.60;;;;;;6180899;23;20040;-88
2023/05/10 08:51:46;;;;;;;3.80;1.83;;;19.50;32.40;;;;;;6181067;23;20025;-84
2023/05/10 08:54:13;;;;;;;4.38;1.40;;;19.40;33.30;;;;;;6178676;23;20013;-82
2023/05/10 08:56:39;;;;;;;2.25;1.25;;;19.50;33.30;;;;;;6179476;23;20337;-86
2023/05/10 08:59:05;;;;;;;2.92;1.20;;;19.50;33.70;;;;;;6180624;23;20396;-81
2023/05/10 09:01:33;;;;;;;2.63;1.30;;;19.50;34.30;;;;;;6160643;23;20031;-92
2023/05/10 09:03:59;;;;;;;1.65;1.10;;;19.50;34.70;;;;;;6181029;23;20021;-90
2023/05/10 09:06:25;;;;;;;2.17;1.17;;;19.60;34.50;;;;;;6181136;23;20048;-92
2023/05/10 09:08:52;;;;;;;2.95;1.48;;;19.60;35.00;;;;;;6181763;23;20009;-87
2023/05/10 09:11:20;;;;;;;7.95;3.80;;;19.60;34.90;;;;;;6181712;23;20016;-90
2023/05/10 09:13:48;;;;;;;4.45;2.97;;;19.60;34.30;;;;;;6153239;23;20060;-86
2023/05/10 09:16:14;;;;;;;2.80;2.50;;;19.60;33.70;;;;;;6128718;23;20538;-87
2023/05/10 09:18:40;;;;;;;3.70;2.05;;;19.60;32.70;;;;;;6180663;23;20442;-82
2023/05/10 09:21:06;;;;;;;3.13;2.25;;;19.50;32.20;;;;;;6166301;23;20024;-81
2023/05/10 09:23:32;;;;;;;3.72;1.70;;;19.50;31.70;;;;;;6183788;23;20033;-84
2023/05/10 09:26:04;;;;;;;4.13;2.08;;;19.50;31.90;;;;;;6156531;23;20009;-86
2023/05/10 09:28:52;;;;;;;2.65;1.50;;;19.50;32.30;;;;;;6180287;23;20017;-82
2023/05/10 09:31:18;;;;;;;2.22;2.03;;;19.50;32.90;;;;;;6154571;23;20021;-86
2023/05/10 09:33:48;;;;;;;3.13;1.65;;;19.50;33.40;;;;;;6180619;23;20017;-81
2023/05/10 09:36:14;;;;;;;3.88;1.63;;;19.50;33.60;;;;;;6180636;23;20392;-84
2023/05/10 09:38:52;;;;;;;1.70;1.58;;;19.60;33.70;;;;;;6179453;23;20517;-83
2023/05/10 09:41:22;;;;;;;4.38;1.70;;;19.50;32.60;;;;;;6179600;23;20081;-82
2023/05/10 09:43:49;;;;;;;9.25;1.90;;;19.60;33.80;;;;;;6154596;23;20345;-78
2023/05/10 09:46:16;;;;;;;4.35;1.60;;;19.60;35.40;;;;;;6180149;23;20024;-80
2023/05/10 09:48:44;;;;;;;4.20;1.35;;;19.60;36.00;;;;;;6153623;23;20021;-84
2023/05/10 09:51:10;;;;;;;6.40;2.00;;;19.70;36.30;;;;;;6180788;23;20017;-85
2023/05/10 09:53:36;;;;;;;3.67;1.70;;;19.70;36.90;;;;;;6154548;23;20021;-81
2023/05/10 09:56:02;;;;;;;7.25;1.65;;;19.70;36.70;;;;;;6180425;23;20032;-79
2023/05/10 09:58:28;;;;;;;4.15;1.40;;;19.70;34.50;;;;;;6153424;23;20444;-80
2023/05/10 10:00:54;;;;;;;3.78;1.48;;;19.60;33.40;;;;;;6180336;23;20040;-78
2023/05/10 10:03:22;;;;;;;3.58;1.30;;;19.60;33.30;;;;;;6153505;23;20025;-80
2023/05/10 10:05:48;;;;;;;1.55;1.15;;;19.60;32.30;;;;;;6179530;23;20013;-80
2023/05/10 10:08:16;;;;;;;4.03;1.33;;;19.60;32.10;;;;;;6129040;23;20349;-80
2023/05/10 10:10:44;;;;;;;3.42;1.40;;;19.60;32.10;;;;;;6180195;23;20009;-80
2023/05/10 10:13:10;;;;;;;4.95;2.28;;;19.50;32.40;;;;;;6179539;23;20025;-82
2023/05/10 10:15:37;;;;;;;2.35;1.70;;;19.60;32.70;;;;;;6153405;23;20091;-85
2023/05/10 10:18:04;;;;;;;5.53;2.10;;;19.60;32.90;;;;;;6153622;23;20013;-85
2023/05/10 10:20:31;;;;;;;4.00;2.10;;;19.60;33.20;;;;;;6152884;23;20356;-84
2023/05/10 10:22:57;;;;;;;4.05;1.83;;;19.60;33.70;;;;;;6153272;23;20362;-84
2023/05/10 10:25:23;;;;;;;3.60;1.50;;;19.60;34.20;;;;;;6179267;23;20040;-84
2023/05/10 10:28:06;;;;;;;3.67;1.50;;;19.60;33.70;;;;;;6179270;23;20024;-84
2023/05/10 10:30:51;;;;;;;3.17;1.48;;;19.60;33.90;;;;;;6179435;23;20063;-84
2023/05/10 10:33:54;;;;;;;1.70;1.08;;;19.60;33.90;;;;;;6180087;23;20025;-84
2023/05/10 10:36:20;;;;;;;3.75;1.65;;;19.60;33.70;;;;;;6152922;23;20084;-81
2023/05/10 10:38:46;;;;;;;2.85;1.70;;;19.60;34.40;;;;;;6179297;23;20013;-84
2023/05/10 10:41:36;;;;;;;3.53;1.50;;;19.60;33.90;;;;;;6153414;23;20043;-85
2023/05/10 10:44:27;;;;;;;6.70;1.55;;;19.60;34.20;;;;;;6167185;23;20032;-85
2023/05/10 10:47:05;;;;;;;4.75;1.48;;;19.60;34.30;;;;;;6153314;23;20021;-85
2023/05/10 10:49:33;;;;;;;6.72;1.42;;;19.60;34.70;;;;;;6179886;23;20554;-85
2023/05/10 10:52:20;;;;;;;3.28;1.60;;;19.60;35.00;;;;;;6179721;23;20108;-86
2023/05/10 10:55:08;;;;;;;14.07;2.67;;;19.60;35.20;;;;;;6179435;23;20472;-85
2023/05/10 10:57:41;;;;;;;4.03;1.50;;;19.60;35.30;;;;;;6153395;23;20028;-86
2023/05/10 11:00:22;;;;;;;4.10;1.60;;;19.60;35.80;;;;;;6152872;23;20491;-86
2023/05/10 11:03:17;;;;;;;2.90;1.30;;;19.60;35.70;;;;;;6179780;23;20009;-84
2023/05/10 11:05:45;;;;;;;2.63;1.20;;;19.60;35.30;;;;;;6179421;23;20013;-84
2023/05/10 11:08:12;;;;;;;3.15;1.60;;;19.60;34.70;;;;;;6153309;23;20464;-86
2023/05/10 11:10:39;;;;;;;3.90;1.40;;;19.60;34.30;;;;;;6129578;23;20633;-83
2023/05/10 11:13:09;;;;;;;3.33;1.60;;;19.60;34.70;;;;;;6152979;23;20052;-86
2023/05/10 11:15:40;;;;;;;2.70;1.25;;;19.60;33.50;;;;;;6179934;23;20025;-86
2023/05/10 11:18:24;;;;;;;2.85;1.65;;;19.60;33.70;;;;;;6179667;23;20009;-86
2023/05/10 11:21:20;;;;;;;4.80;1.63;;;19.60;33.40;;;;;;6179908;23;20036;-86
2023/05/10 11:23:50;;;;;;;1.90;1.33;;;19.60;32.90;;;;;;6152064;23;20405;-85
2023/05/10 11:26:16;;;;;;;3.35;1.70;;;19.60;32.70;;;;;;6179957;23;20013;-86
2023/05/10 11:28:47;;;;;;;2.55;1.60;;;19.50;32.70;;;;;;6181027;23;20001;-85
2023/05/10 11:31:19;;;;;;;3.30;1.50;;;19.60;33.00;;;;;;6152793;23;20021;-84
2023/05/10 11:33:47;;;;;;;2.80;1.58;;;19.60;33.10;;;;;;6152885;23;20036;-86
2023/05/10 11:36:21;;;;;;;2.40;1.50;;;19.60;33.70;;;;;;6127789;23;20012;-86
2023/05/10 11:38:48;;;;;;;3.33;1.35;;;19.60;34.00;;;;;;6179414;23;20078;-82
2023/05/10 11:41:16;;;;;;;1.50;1.10;;;19.60;33.90;;;;;;6130030;23;20078;-78
2023/05/10 11:43:42;;;;;;;2.20;1.50;;;19.60;33.90;;;;;;6198969;23;20017;-83
2023/05/10 11:46:11;;;;;;;2.90;1.55;;;19.60;34.30;;;;;;6182775;23;20099;-84
2023/05/10 11:48:40;;;;;;;1.55;1.35;;;19.60;34.50;;;;;;6179120;23;20112;-82
2023/05/10 11:51:10;;;;;;;1.80;1.20;;;19.60;34.40;;;;;;6152825;23;20099;-84
2023/05/10 11:53:37;;;;;;;5.32;1.80;;;19.60;34.10;;;;;;6179818;23;20109;-85
2023/05/10 11:56:10;;;;;;;1.42;1.33;;;19.60;34.00;;;;;;6129417;23;20020;-80
2023/05/10 11:58:38;;;;;;;2.58;1.38;;;19.60;33.70;;;;;;6153163;23;20490;-80
2023/05/10 12:01:06;;;;;;;5.00;1.40;;;19.50;33.60;;;;;;6177976;23;20425;-82
2023/05/10 12:03:32;;;;;;;7.40;1.58;;;19.60;33.50;;;;;;6152854;23;20028;-79
2023/05/10 12:06:00;;;;;;;3.15;1.38;;;19.60;34.20;;;;;;6178304;23;20020;-84
2023/05/10 12:08:27;;;;;;;2.00;1.40;;;19.50;33.70;;;;;;6152305;23;20480;-84
2023/05/10 12:11:03;;;;;;;2.35;1.30;;;19.50;33.80;;;;;;6125925;23;20342;-85
2023/05/10 12:13:29;;;;;;;2.17;1.10;;;19.50;33.50;;;;;;6179029;23;20028;-83
2023/05/10 12:15:59;;;;;;;3.63;1.65;;;19.50;33.70;;;;;;6153164;23;20405;-92
2023/05/10 12:18:25;;;;;;;10.48;1.95;;;19.50;33.70;;;;;;6180953;23;20021;-82
2023/05/10 12:20:54;;;;;;;3.40;1.58;;;19.50;34.00;;;;;;6152900;23;20064;-86
2023/05/10 12:23:21;;;;;;;5.82;1.50;;;19.50;33.60;;;;;;6180211;23;20052;-86
2023/05/10 12:25:47;;;;;;;2.83;1.30;;;19.50;33.30;;;;;;6180237;23;20020;-84
2023/05/10 12:28:13;;;;;;;1.58;1.30;;;19.50;33.60;;;;;;6178799;23;20025;-84
2023/05/10 12:30:39;;;;;;;2.83;1.30;;;19.50;33.70;;;;;;6178562;23;20024;-83
2023/05/10 12:33:13;;;;;;;4.57;1.50;;;19.50;33.80;;;;;;6156040;23;20124;-81
2023/05/10 12:35:54;;;;;;;1.60;1.33;;;19.50;34.10;;;;;;6179995;23;20013;-84
2023/05/10 12:38:30;;;;;;;5.28;1.73;;;19.50;34.30;;;;;;6152697;23;20504;-85
2023/05/10 12:41:08;;;;;;;6.20;1.90;;;19.50;34.20;;;;;;6154057;23;20025;-86
2023/05/10 12:43:35;;;;;;;10.90;1.70;;;19.50;34.60;;;;;;6152777;23;20017;-85
2023/05/10 12:46:09;;;;;;;3.38;1.38;;;19.50;34.90;;;;;;6153095;23;20025;-83
2023/05/10 12:48:36;;;;;;;6.22;1.67;;;19.40;34.90;;;;;;6127843;23;20021;-82
2023/05/10 12:51:02;;;;;;;5.30;1.65;;;19.50;34.70;;;;;;6152321;23;20027;-80